sensor_id;sensor_type;location;lat;lon;timestamp;temperature;humidity
36652;DHT22;53334;51.976;20.144;2023-08-12T00:00:03;24.80;51.90
36652;DHT22;53334;51.976;20.144;2023-08-12T00:02:46;24.80;52.00
36652;DHT22;53334;51.976;20.144;2023-08-12T00:05:20;24.80;52.10
36652;DHT22;53334;51.976;20.144;2023-08-12T00:07:53;24.80;52.10
36652;DHT22;53334;51.976;20.144;2023-08-12T00:10:27;24.80;52.10
36652;DHT22;53334;51.976;20.144;2023-08-12T00:13:00;24.80;52.00
36652;DHT22;53334;51.976;20.144;2023-08-12T00:15:33;24.80;52.00
36652;DHT22;53334;51.976;20.144;2023-08-12T00:18:08;24.80;52.00
36652;DHT22;53334;51.976;20.144;2023-08-12T00:20:41;24.80;52.00
36652;DHT22;53334;51.976;20.144;2023-08-12T00:23:15;24.80;51.90
36652;DHT22;53334;51.976;20.144;2023-08-12T00:25:49;24.90;52.00
36652;DHT22;53334;51.976;20.144;2023-08-12T00:28:22;24.80;51.90
36652;DHT22;53334;51.976;20.144;2023-08-12T00:30:55;24.80;51.80
36652;DHT22;53334;51.976;20.144;2023-08-12T00:33:30;24.90;51.80
36652;DHT22;53334;51.976;20.144;2023-08-12T00:36:04;24.80;51.70
36652;DHT22;53334;51.976;20.144;2023-08-12T00:38:38;24.80;51.80
36652;DHT22;53334;51.976;20.144;2023-08-12T00:41:11;24.80;51.90
36652;DHT22;53334;51.976;20.144;2023-08-12T00:43:45;24.80;51.90
36652;DHT22;53334;51.976;20.144;2023-08-12T00:46:18;24.80;51.90
36652;DHT22;53334;51.976;20.144;2023-08-12T00:48:53;24.80;51.90
36652;DHT22;53334;51.976;20.144;2023-08-12T00:51:27;24.80;51.80
36652;DHT22;53334;51.976;20.144;2023-08-12T00:54:00;24.80;51.80
36652;DHT22;53334;51.976;20.144;2023-08-12T00:56:35;24.90;51.80
36652;DHT22;53334;51.976;20.144;2023-08-12T00:59:09;24.90;52.30
36652;DHT22;53334;51.976;20.144;2023-08-12T01:01:44;24.80;51.70
36652;DHT22;53334;51.976;20.144;2023-08-12T01:04:19;24.80;51.60
36652;DHT22;53334;51.976;20.144;2023-08-12T01:06:52;24.80;51.60
36652;DHT22;53334;51.976;20.144;2023-08-12T01:09:26;24.80;51.50
36652;DHT22;53334;51.976;20.144;2023-08-12T01:12:05;24.80;52.00
36652;DHT22;53334;51.976;20.144;2023-08-12T01:14:45;24.80;51.50
36652;DHT22;53334;51.976;20.144;2023-08-12T01:17:20;24.80;51.40
36652;DHT22;53334;51.976;20.144;2023-08-12T01:19:56;24.80;51.50
36652;DHT22;53334;51.976;20.144;2023-08-12T01:22:30;24.80;51.60
36652;DHT22;53334;51.976;20.144;2023-08-12T01:25:07;24.80;51.60
36652;DHT22;53334;51.976;20.144;2023-08-12T01:27:42;24.80;51.70
36652;DHT22;53334;51.976;20.144;2023-08-12T01:30:15;24.80;51.70
36652;DHT22;53334;51.976;20.144;2023-08-12T01:32:53;24.80;51.70
36652;DHT22;53334;51.976;20.144;2023-08-12T01:35:32;24.80;51.70
36652;DHT22;53334;51.976;20.144;2023-08-12T01:38:08;24.80;51.70
36652;DHT22;53334;51.976;20.144;2023-08-12T01:40:45;24.80;51.70
36652;DHT22;53334;51.976;20.144;2023-08-12T01:43:20;24.80;51.70
36652;DHT22;53334;51.976;20.144;2023-08-12T01:45:53;24.80;51.60
36652;DHT22;53334;51.976;20.144;2023-08-12T01:48:27;24.80;51.60
36652;DHT22;53334;51.976;20.144;2023-08-12T01:51:00;24.80;51.60
36652;DHT22;53334;51.976;20.144;2023-08-12T01:53:33;24.80;51.50
36652;DHT22;53334;51.976;20.144;2023-08-12T01:56:08;24.80;51.40
36652;DHT22;53334;51.976;20.144;2023-08-12T01:58:41;24.80;51.40
36652;DHT22;53334;51.976;20.144;2023-08-12T02:01:14;24.80;51.30
36652;DHT22;53334;51.976;20.144;2023-08-12T02:03:48;24.80;51.30
36652;DHT22;53334;51.976;20.144;2023-08-12T02:06:22;24.80;51.30
36652;DHT22;53334;51.976;20.144;2023-08-12T02:08:56;24.80;51.20
36652;DHT22;53334;51.976;20.144;2023-08-12T02:11:30;24.80;51.20
36652;DHT22;53334;51.976;20.144;2023-08-12T02:14:04;24.80;51.20
36652;DHT22;53334;51.976;20.144;2023-08-12T02:16:37;24.80;51.10
36652;DHT22;53334;51.976;20.144;2023-08-12T02:19:11;24.80;51.10
36652;DHT22;53334;51.976;20.144;2023-08-12T02:21:44;24.80;51.10
36652;DHT22;53334;51.976;20.144;2023-08-12T02:24:18;24.80;51.10
36652;DHT22;53334;51.976;20.144;2023-08-12T02:26:52;24.80;51.20
36652;DHT22;53334;51.976;20.144;2023-08-12T02:29:26;24.80;51.20
36652;DHT22;53334;51.976;20.144;2023-08-12T02:32:00;24.80;51.20
36652;DHT22;53334;51.976;20.144;2023-08-12T02:34:33;24.80;51.20
36652;DHT22;53334;51.976;20.144;2023-08-12T02:37:06;24.80;51.20
36652;DHT22;53334;51.976;20.144;2023-08-12T02:39:40;24.80;51.20
36652;DHT22;53334;51.976;20.144;2023-08-12T02:42:15;24.80;51.30
36652;DHT22;53334;51.976;20.144;2023-08-12T02:44:49;24.80;51.40
36652;DHT22;53334;51.976;20.144;2023-08-12T02:47:22;24.80;51.30
36652;DHT22;53334;51.976;20.144;2023-08-12T02:49:55;24.80;51.30
36652;DHT22;53334;51.976;20.144;2023-08-12T02:52:28;24.80;51.30
36652;DHT22;53334;51.976;20.144;2023-08-12T02:55:02;24.80;51.30
36652;DHT22;53334;51.976;20.144;2023-08-12T02:57:37;24.80;51.30
36652;DHT22;53334;51.976;20.144;2023-08-12T03:00:11;24.80;51.30
36652;DHT22;53334;51.976;20.144;2023-08-12T03:02:45;24.80;51.20
36652;DHT22;53334;51.976;20.144;2023-08-12T03:05:18;24.80;51.20
36652;DHT22;53334;51.976;20.144;2023-08-12T03:07:52;24.80;51.10
36652;DHT22;53334;51.976;20.144;2023-08-12T03:10:26;24.80;51.00
36652;DHT22;53334;51.976;20.144;2023-08-12T03:13:01;24.80;51.00
36652;DHT22;53334;51.976;20.144;2023-08-12T03:15:34;24.80;51.60
36652;DHT22;53334;51.976;20.144;2023-08-12T03:18:08;24.80;51.00
36652;DHT22;53334;51.976;20.144;2023-08-12T03:20:42;24.80;51.00
36652;DHT22;53334;51.976;20.144;2023-08-12T03:23:16;24.80;51.00
36652;DHT22;53334;51.976;20.144;2023-08-12T03:25:49;24.80;51.10
36652;DHT22;53334;51.976;20.144;2023-08-12T03:28:25;24.80;51.10
36652;DHT22;53334;51.976;20.144;2023-08-12T03:30:59;24.80;51.10
36652;DHT22;53334;51.976;20.144;2023-08-12T03:33:32;24.80;51.10
36652;DHT22;53334;51.976;20.144;2023-08-12T03:36:06;24.80;51.10
36652;DHT22;53334;51.976;20.144;2023-08-12T03:38:41;24.80;51.10
36652;DHT22;53334;51.976;20.144;2023-08-12T03:41:19;24.80;51.10
36652;DHT22;53334;51.976;20.144;2023-08-12T03:43:54;24.80;51.10
36652;DHT22;53334;51.976;20.144;2023-08-12T03:46:28;24.80;51.00
36652;DHT22;53334;51.976;20.144;2023-08-12T03:49:03;24.80;51.10
36652;DHT22;53334;51.976;20.144;2023-08-12T03:51:36;24.80;51.10
36652;DHT22;53334;51.976;20.144;2023-08-12T03:54:10;24.80;51.10
36652;DHT22;53334;51.976;20.144;2023-08-12T03:56:44;24.80;51.10
36652;DHT22;53334;51.976;20.144;2023-08-12T03:59:19;24.80;51.10
36652;DHT22;53334;51.976;20.144;2023-08-12T04:01:53;24.80;51.00
36652;DHT22;53334;51.976;20.144;2023-08-12T04:04:26;24.80;51.00
36652;DHT22;53334;51.976;20.144;2023-08-12T04:07:00;24.80;51.00
36652;DHT22;53334;51.976;20.144;2023-08-12T04:09:33;24.80;51.00
36652;DHT22;53334;51.976;20.144;2023-08-12T04:12:07;24.80;50.90
36652;DHT22;53334;51.976;20.144;2023-08-12T04:14:41;24.70;50.80
36652;DHT22;53334;51.976;20.144;2023-08-12T04:17:14;24.80;50.90
36652;DHT22;53334;51.976;20.144;2023-08-12T04:19:48;24.70;50.80
36652;DHT22;53334;51.976;20.144;2023-08-12T04:22:22;24.80;51.40
36652;DHT22;53334;51.976;20.144;2023-08-12T04:24:55;24.80;50.70
36652;DHT22;53334;51.976;20.144;2023-08-12T04:27:28;24.70;50.60
36652;DHT22;53334;51.976;20.144;2023-08-12T04:30:06;24.70;50.60
36652;DHT22;53334;51.976;20.144;2023-08-12T04:32:39;24.70;51.20
36652;DHT22;53334;51.976;20.144;2023-08-12T04:35:13;24.70;50.60
36652;DHT22;53334;51.976;20.144;2023-08-12T04:37:47;24.70;50.60
36652;DHT22;53334;51.976;20.144;2023-08-12T04:40:22;24.70;50.50
36652;DHT22;53334;51.976;20.144;2023-08-12T04:42:56;24.70;50.50
36652;DHT22;53334;51.976;20.144;2023-08-12T04:45:30;24.70;50.40
36652;DHT22;53334;51.976;20.144;2023-08-12T04:48:05;24.80;50.50
36652;DHT22;53334;51.976;20.144;2023-08-12T04:50:39;24.70;50.40
36652;DHT22;53334;51.976;20.144;2023-08-12T04:53:12;24.80;50.50
36652;DHT22;53334;51.976;20.144;2023-08-12T04:55:49;24.70;50.40
36652;DHT22;53334;51.976;20.144;2023-08-12T04:58:23;24.70;50.40
36652;DHT22;53334;51.976;20.144;2023-08-12T05:00:58;24.70;50.40
36652;DHT22;53334;51.976;20.144;2023-08-12T05:03:34;24.70;50.50
36652;DHT22;53334;51.976;20.144;2023-08-12T05:06:07;24.70;50.50
36652;DHT22;53334;51.976;20.144;2023-08-12T05:08:41;24.70;50.50
36652;DHT22;53334;51.976;20.144;2023-08-12T05:11:14;24.70;50.50
36652;DHT22;53334;51.976;20.144;2023-08-12T05:13:48;24.70;50.50
36652;DHT22;53334;51.976;20.144;2023-08-12T05:16:23;24.70;50.50
36652;DHT22;53334;51.976;20.144;2023-08-12T05:18:56;24.80;50.60
36652;DHT22;53334;51.976;20.144;2023-08-12T05:21:31;24.80;50.50
36652;DHT22;53334;51.976;20.144;2023-08-12T05:24:05;24.80;51.00
36652;DHT22;53334;51.976;20.144;2023-08-12T05:26:38;24.70;50.40
36652;DHT22;53334;51.976;20.144;2023-08-12T05:29:11;24.70;50.40
36652;DHT22;53334;51.976;20.144;2023-08-12T05:31:46;24.70;50.40
36652;DHT22;53334;51.976;20.144;2023-08-12T05:34:20;24.70;50.40
36652;DHT22;53334;51.976;20.144;2023-08-12T05:36:53;24.70;50.40
36652;DHT22;53334;51.976;20.144;2023-08-12T05:39:26;24.70;50.40
36652;DHT22;53334;51.976;20.144;2023-08-12T05:42:00;24.70;50.40
36652;DHT22;53334;51.976;20.144;2023-08-12T05:44:33;24.70;50.40
36652;DHT22;53334;51.976;20.144;2023-08-12T05:47:08;24.70;50.50
36652;DHT22;53334;51.976;20.144;2023-08-12T05:49:41;24.70;50.50
36652;DHT22;53334;51.976;20.144;2023-08-12T05:52:15;24.70;50.50
36652;DHT22;53334;51.976;20.144;2023-08-12T05:54:48;24.80;50.60
36652;DHT22;53334;51.976;20.144;2023-08-12T05:57:22;24.70;50.60
36652;DHT22;53334;51.976;20.144;2023-08-12T05:59:58;24.70;50.70
36652;DHT22;53334;51.976;20.144;2023-08-12T06:02:33;24.70;50.70
36652;DHT22;53334;51.976;20.144;2023-08-12T06:05:07;24.80;50.80
36652;DHT22;53334;51.976;20.144;2023-08-12T06:07:40;24.80;50.80
36652;DHT22;53334;51.976;20.144;2023-08-12T06:10:14;24.80;50.90
36652;DHT22;53334;51.976;20.144;2023-08-12T06:12:47;24.80;50.90
36652;DHT22;53334;51.976;20.144;2023-08-12T06:15:21;24.80;50.90
36652;DHT22;53334;51.976;20.144;2023-08-12T06:17:55;24.80;50.90
36652;DHT22;53334;51.976;20.144;2023-08-12T06:20:29;24.80;51.00
36652;DHT22;53334;51.976;20.144;2023-08-12T06:23:02;24.80;50.90
36652;DHT22;53334;51.976;20.144;2023-08-12T06:25:36;24.80;50.90
36652;DHT22;53334;51.976;20.144;2023-08-12T06:28:09;24.80;50.90
36652;DHT22;53334;51.976;20.144;2023-08-12T06:30:45;24.80;50.80
36652;DHT22;53334;51.976;20.144;2023-08-12T06:33:21;24.80;50.80
36652;DHT22;53334;51.976;20.144;2023-08-12T06:35:54;24.80;51.40
36652;DHT22;53334;51.976;20.144;2023-08-12T06:38:28;24.80;50.90
36652;DHT22;53334;51.976;20.144;2023-08-12T06:41:01;24.80;50.80
36652;DHT22;53334;51.976;20.144;2023-08-12T06:43:35;24.80;50.90
36652;DHT22;53334;51.976;20.144;2023-08-12T06:46:08;24.80;50.90
36652;DHT22;53334;51.976;20.144;2023-08-12T06:48:43;24.80;50.80
36652;DHT22;53334;51.976;20.144;2023-08-12T06:51:16;24.80;50.70
36652;DHT22;53334;51.976;20.144;2023-08-12T06:53:49;24.80;50.70
36652;DHT22;53334;51.976;20.144;2023-08-12T06:56:22;24.80;50.70
36652;DHT22;53334;51.976;20.144;2023-08-12T06:58:56;24.80;50.60
36652;DHT22;53334;51.976;20.144;2023-08-12T07:01:29;24.80;50.50
36652;DHT22;53334;51.976;20.144;2023-08-12T07:04:04;24.80;50.70
36652;DHT22;53334;51.976;20.144;2023-08-12T07:06:38;24.80;51.20
36652;DHT22;53334;51.976;20.144;2023-08-12T07:09:11;24.80;51.30
36652;DHT22;53334;51.976;20.144;2023-08-12T07:11:45;24.80;51.40
36652;DHT22;53334;51.976;20.144;2023-08-12T07:14:18;24.90;51.80
36652;DHT22;53334;51.976;20.144;2023-08-12T07:16:51;24.90;52.20
36652;DHT22;53334;51.976;20.144;2023-08-12T07:19:26;24.90;52.30
36652;DHT22;53334;51.976;20.144;2023-08-12T07:21:59;24.90;52.70
36652;DHT22;53334;51.976;20.144;2023-08-12T07:24:32;24.90;52.70
36652;DHT22;53334;51.976;20.144;2023-08-12T07:27:06;25.00;53.00
36652;DHT22;53334;51.976;20.144;2023-08-12T07:29:39;25.00;53.10
36652;DHT22;53334;51.976;20.144;2023-08-12T07:32:12;25.00;53.00
36652;DHT22;53334;51.976;20.144;2023-08-12T07:34:47;25.00;52.90
36652;DHT22;53334;51.976;20.144;2023-08-12T07:37:21;25.10;52.90
36652;DHT22;53334;51.976;20.144;2023-08-12T07:39:54;25.10;52.70
36652;DHT22;53334;51.976;20.144;2023-08-12T07:42:27;25.10;52.20
36652;DHT22;53334;51.976;20.144;2023-08-12T07:45:01;25.10;50.90
36652;DHT22;53334;51.976;20.144;2023-08-12T07:47:34;25.10;49.00
36652;DHT22;53334;51.976;20.144;2023-08-12T07:50:12;25.10;49.10
36652;DHT22;53334;51.976;20.144;2023-08-12T07:52:45;25.10;49.00
36652;DHT22;53334;51.976;20.144;2023-08-12T07:55:19;25.20;49.60
36652;DHT22;53334;51.976;20.144;2023-08-12T07:57:52;25.20;50.10
36652;DHT22;53334;51.976;20.144;2023-08-12T08:00:25;25.20;50.40
36652;DHT22;53334;51.976;20.144;2023-08-12T08:02:59;25.20;50.70
36652;DHT22;53334;51.976;20.144;2023-08-12T08:05:34;25.20;50.80
36652;DHT22;53334;51.976;20.144;2023-08-12T08:08:07;25.20;50.50
36652;DHT22;53334;51.976;20.144;2023-08-12T08:10:40;25.20;50.20
36652;DHT22;53334;51.976;20.144;2023-08-12T08:13:14;25.20;49.90
36652;DHT22;53334;51.976;20.144;2023-08-12T08:15:47;25.20;49.70
36652;DHT22;53334;51.976;20.144;2023-08-12T08:18:20;25.20;49.60
36652;DHT22;53334;51.976;20.144;2023-08-12T08:20:55;25.20;49.60
36652;DHT22;53334;51.976;20.144;2023-08-12T08:23:28;25.20;49.50
36652;DHT22;53334;51.976;20.144;2023-08-12T08:26:02;25.20;49.50
36652;DHT22;53334;51.976;20.144;2023-08-12T08:28:35;25.20;49.50
36652;DHT22;53334;51.976;20.144;2023-08-12T08:31:08;25.20;49.60
36652;DHT22;53334;51.976;20.144;2023-08-12T08:33:42;25.20;50.40
36652;DHT22;53334;51.976;20.144;2023-08-12T08:36:17;25.20;51.20
36652;DHT22;53334;51.976;20.144;2023-08-12T08:38:51;25.30;50.70
36652;DHT22;53334;51.976;20.144;2023-08-12T08:41:25;25.30;51.40
36652;DHT22;53334;51.976;20.144;2023-08-12T08:44:02;25.30;52.40
36652;DHT22;53334;51.976;20.144;2023-08-12T08:46:36;25.30;52.80
36652;DHT22;53334;51.976;20.144;2023-08-12T08:49:10;25.30;52.10
36652;DHT22;53334;51.976;20.144;2023-08-12T08:51:46;25.30;51.90
36652;DHT22;53334;51.976;20.144;2023-08-12T08:54:20;25.40;51.90
36652;DHT22;53334;51.976;20.144;2023-08-12T08:56:53;25.30;51.00
36652;DHT22;53334;51.976;20.144;2023-08-12T08:59:47;25.40;50.70
36652;DHT22;53334;51.976;20.144;2023-08-12T09:02:29;25.40;50.10
36652;DHT22;53334;51.976;20.144;2023-08-12T09:05:05;25.40;50.00
36652;DHT22;53334;51.976;20.144;2023-08-12T09:07:41;25.40;50.20
36652;DHT22;53334;51.976;20.144;2023-08-12T09:10:15;25.40;49.50
36652;DHT22;53334;51.976;20.144;2023-08-12T09:12:50;25.40;49.00
36652;DHT22;53334;51.976;20.144;2023-08-12T09:15:25;25.40;48.60
36652;DHT22;53334;51.976;20.144;2023-08-12T09:17:58;25.40;48.10
36652;DHT22;53334;51.976;20.144;2023-08-12T09:20:32;25.30;47.80
36652;DHT22;53334;51.976;20.144;2023-08-12T09:23:06;25.30;47.50
36652;DHT22;53334;51.976;20.144;2023-08-12T09:25:43;25.30;47.20
36652;DHT22;53334;51.976;20.144;2023-08-12T09:28:17;25.30;46.90
36652;DHT22;53334;51.976;20.144;2023-08-12T09:30:50;25.30;46.70
36652;DHT22;53334;51.976;20.144;2023-08-12T09:33:25;25.30;46.50
36652;DHT22;53334;51.976;20.144;2023-08-12T09:35:58;25.30;46.30
36652;DHT22;53334;51.976;20.144;2023-08-12T09:38:33;25.30;46.10
36652;DHT22;53334;51.976;20.144;2023-08-12T09:41:07;25.30;45.90
36652;DHT22;53334;51.976;20.144;2023-08-12T09:43:40;25.30;45.80
36652;DHT22;53334;51.976;20.144;2023-08-12T09:46:15;25.30;45.60
36652;DHT22;53334;51.976;20.144;2023-08-12T09:48:50;25.30;45.70
36652;DHT22;53334;51.976;20.144;2023-08-12T09:51:24;25.30;45.50
36652;DHT22;53334;51.976;20.144;2023-08-12T09:53:58;25.30;45.40
36652;DHT22;53334;51.976;20.144;2023-08-12T09:56:36;25.30;45.30
36652;DHT22;53334;51.976;20.144;2023-08-12T09:59:10;25.30;45.20
36652;DHT22;53334;51.976;20.144;2023-08-12T10:01:44;25.30;45.00
36652;DHT22;53334;51.976;20.144;2023-08-12T10:04:22;25.30;45.00
36652;DHT22;53334;51.976;20.144;2023-08-12T10:06:56;25.30;44.80
36652;DHT22;53334;51.976;20.144;2023-08-12T10:09:31;25.30;44.80
36652;DHT22;53334;51.976;20.144;2023-08-12T10:12:06;25.20;44.70
36652;DHT22;53334;51.976;20.144;2023-08-12T10:14:39;25.20;44.80
36652;DHT22;53334;51.976;20.144;2023-08-12T10:17:14;25.20;44.80
36652;DHT22;53334;51.976;20.144;2023-08-12T10:20:07;25.20;44.70
36652;DHT22;53334;51.976;20.144;2023-08-12T10:22:43;25.20;44.80
36652;DHT22;53334;51.976;20.144;2023-08-12T10:25:19;25.20;44.70
36652;DHT22;53334;51.976;20.144;2023-08-12T10:27:54;25.20;44.60
36652;DHT22;53334;51.976;20.144;2023-08-12T10:30:29;25.20;44.50
36652;DHT22;53334;51.976;20.144;2023-08-12T10:33:03;25.20;44.50
36652;DHT22;53334;51.976;20.144;2023-08-12T10:35:42;25.20;44.50
36652;DHT22;53334;51.976;20.144;2023-08-12T10:38:18;25.20;44.40
36652;DHT22;53334;51.976;20.144;2023-08-12T10:40:53;25.20;44.40
36652;DHT22;53334;51.976;20.144;2023-08-12T10:43:51;25.20;44.30
36652;DHT22;53334;51.976;20.144;2023-08-12T10:46:29;25.20;44.30
36652;DHT22;53334;51.976;20.144;2023-08-12T10:49:04;25.20;44.30
36652;DHT22;53334;51.976;20.144;2023-08-12T10:51:45;25.20;44.30
36652;DHT22;53334;51.976;20.144;2023-08-12T10:54:21;25.20;44.20
36652;DHT22;53334;51.976;20.144;2023-08-12T10:57:09;25.20;44.20
36652;DHT22;53334;51.976;20.144;2023-08-12T10:59:54;25.20;44.20
36652;DHT22;53334;51.976;20.144;2023-08-12T11:02:28;25.20;44.20
36652;DHT22;53334;51.976;20.144;2023-08-12T11:05:04;25.20;44.20
36652;DHT22;53334;51.976;20.144;2023-08-12T11:07:38;25.20;44.20
36652;DHT22;53334;51.976;20.144;2023-08-12T11:10:14;25.20;44.20
36652;DHT22;53334;51.976;20.144;2023-08-12T11:12:54;25.20;44.20
36652;DHT22;53334;51.976;20.144;2023-08-12T11:15:31;25.20;44.20
36652;DHT22;53334;51.976;20.144;2023-08-12T11:18:07;25.20;44.20
36652;DHT22;53334;51.976;20.144;2023-08-12T11:20:41;25.20;44.20
36652;DHT22;53334;51.976;20.144;2023-08-12T11:23:14;25.20;44.20
36652;DHT22;53334;51.976;20.144;2023-08-12T11:25:47;25.20;44.20
36652;DHT22;53334;51.976;20.144;2023-08-12T11:28:24;25.20;44.20
36652;DHT22;53334;51.976;20.144;2023-08-12T11:30:58;25.20;44.20
36652;DHT22;53334;51.976;20.144;2023-08-12T11:33:32;25.20;44.20
36652;DHT22;53334;51.976;20.144;2023-08-12T11:36:06;25.10;44.10
36652;DHT22;53334;51.976;20.144;2023-08-12T11:38:39;25.20;44.20
36652;DHT22;53334;51.976;20.144;2023-08-12T11:41:12;25.20;44.20
36652;DHT22;53334;51.976;20.144;2023-08-12T11:43:47;25.20;44.20
36652;DHT22;53334;51.976;20.144;2023-08-12T11:46:20;25.20;44.20
36652;DHT22;53334;51.976;20.144;2023-08-12T11:48:54;25.20;44.20
36652;DHT22;53334;51.976;20.144;2023-08-12T11:51:27;25.10;44.10
36652;DHT22;53334;51.976;20.144;2023-08-12T11:54:01;25.20;44.20
36652;DHT22;53334;51.976;20.144;2023-08-12T11:56:34;25.20;44.20
36652;DHT22;53334;51.976;20.144;2023-08-12T11:59:09;25.10;44.10
36652;DHT22;53334;51.976;20.144;2023-08-12T12:01:46;25.10;44.10
36652;DHT22;53334;51.976;20.144;2023-08-12T12:04:22;25.10;44.10
36652;DHT22;53334;51.976;20.144;2023-08-12T12:06:55;25.10;44.10
36652;DHT22;53334;51.976;20.144;2023-08-12T12:09:29;25.10;44.10
36652;DHT22;53334;51.976;20.144;2023-08-12T12:12:03;25.10;44.10
36652;DHT22;53334;51.976;20.144;2023-08-12T12:14:38;25.20;44.20
36652;DHT22;53334;51.976;20.144;2023-08-12T12:17:11;25.10;44.10
36652;DHT22;53334;51.976;20.144;2023-08-12T12:19:45;25.10;44.20
36652;DHT22;53334;51.976;20.144;2023-08-12T12:22:18;25.10;44.20
36652;DHT22;53334;51.976;20.144;2023-08-12T12:24:51;25.10;44.20
36652;DHT22;53334;51.976;20.144;2023-08-12T12:27:25;25.10;44.70
36652;DHT22;53334;51.976;20.144;2023-08-12T12:29:59;25.10;44.10
36652;DHT22;53334;51.976;20.144;2023-08-12T12:32:33;25.10;44.10
36652;DHT22;53334;51.976;20.144;2023-08-12T12:35:07;25.10;44.10
36652;DHT22;53334;51.976;20.144;2023-08-12T12:38:05;25.10;44.20
36652;DHT22;53334;51.976;20.144;2023-08-12T12:40:39;25.10;46.60
36652;DHT22;53334;51.976;20.144;2023-08-12T12:43:12;25.20;47.70
36652;DHT22;53334;51.976;20.144;2023-08-12T12:45:47;25.20;48.90
36652;DHT22;53334;51.976;20.144;2023-08-12T12:48:20;25.20;49.50
36652;DHT22;53334;51.976;20.144;2023-08-12T12:50:53;25.30;50.20
36652;DHT22;53334;51.976;20.144;2023-08-12T12:53:27;25.30;50.70
36652;DHT22;53334;51.976;20.144;2023-08-12T12:56:00;25.30;50.10
36652;DHT22;53334;51.976;20.144;2023-08-12T12:58:37;25.40;49.30
36652;DHT22;53334;51.976;20.144;2023-08-12T13:01:12;25.40;48.70
36652;DHT22;53334;51.976;20.144;2023-08-12T13:03:45;25.40;48.20
36652;DHT22;53334;51.976;20.144;2023-08-12T13:06:18;25.40;47.90
36652;DHT22;53334;51.976;20.144;2023-08-12T13:08:52;25.40;47.80
36652;DHT22;53334;51.976;20.144;2023-08-12T13:11:25;25.40;47.50
36652;DHT22;53334;51.976;20.144;2023-08-12T13:13:59;25.40;47.50
36652;DHT22;53334;51.976;20.144;2023-08-12T13:16:33;25.40;47.40
36652;DHT22;53334;51.976;20.144;2023-08-12T13:19:07;25.40;47.30
36652;DHT22;53334;51.976;20.144;2023-08-12T13:21:40;25.40;47.30
36652;DHT22;53334;51.976;20.144;2023-08-12T13:24:13;25.40;47.50
36652;DHT22;53334;51.976;20.144;2023-08-12T13:26:47;25.40;47.10
36652;DHT22;53334;51.976;20.144;2023-08-12T13:29:20;25.40;46.80
36652;DHT22;53334;51.976;20.144;2023-08-12T13:31:55;25.40;46.60
36652;DHT22;53334;51.976;20.144;2023-08-12T13:34:28;25.40;47.30
36652;DHT22;53334;51.976;20.144;2023-08-12T13:37:02;25.30;46.30
36652;DHT22;53334;51.976;20.144;2023-08-12T13:39:36;25.30;46.10
36652;DHT22;53334;51.976;20.144;2023-08-12T13:42:09;25.30;46.00
36652;DHT22;53334;51.976;20.144;2023-08-12T13:44:43;25.20;46.00
36652;DHT22;53334;51.976;20.144;2023-08-12T13:47:18;25.20;45.70
36652;DHT22;53334;51.976;20.144;2023-08-12T13:49:51;25.20;46.10
36652;DHT22;53334;51.976;20.144;2023-08-12T13:52:24;25.20;45.80
36652;DHT22;53334;51.976;20.144;2023-08-12T13:54:58;25.20;45.60
36652;DHT22;53334;51.976;20.144;2023-08-12T13:57:31;25.20;45.10
36652;DHT22;53334;51.976;20.144;2023-08-12T14:00:05;25.20;44.90
36652;DHT22;53334;51.976;20.144;2023-08-12T14:02:48;25.20;45.10
36652;DHT22;53334;51.976;20.144;2023-08-12T14:05:21;25.20;45.20
36652;DHT22;53334;51.976;20.144;2023-08-12T14:07:54;25.20;45.70
36652;DHT22;53334;51.976;20.144;2023-08-12T14:10:28;25.20;45.70
36652;DHT22;53334;51.976;20.144;2023-08-12T14:13:01;25.20;45.80
36652;DHT22;53334;51.976;20.144;2023-08-12T14:15:34;25.20;46.10
36652;DHT22;53334;51.976;20.144;2023-08-12T14:18:09;25.20;46.10
36652;DHT22;53334;51.976;20.144;2023-08-12T14:20:42;25.20;46.30
36652;DHT22;53334;51.976;20.144;2023-08-12T14:23:15;25.20;46.40
36652;DHT22;53334;51.976;20.144;2023-08-12T14:25:49;25.20;46.60
36652;DHT22;53334;51.976;20.144;2023-08-12T14:28:22;25.20;46.70
36652;DHT22;53334;51.976;20.144;2023-08-12T14:30:55;25.20;46.80
36652;DHT22;53334;51.976;20.144;2023-08-12T14:33:30;25.20;46.90
36652;DHT22;53334;51.976;20.144;2023-08-12T14:36:05;25.30;47.00
36652;DHT22;53334;51.976;20.144;2023-08-12T14:38:39;25.30;47.00
36652;DHT22;53334;51.976;20.144;2023-08-12T14:41:12;25.30;47.70
36652;DHT22;53334;51.976;20.144;2023-08-12T14:43:46;25.30;47.20
36652;DHT22;53334;51.976;20.144;2023-08-12T14:46:19;25.30;47.30
36652;DHT22;53334;51.976;20.144;2023-08-12T14:48:54;25.30;47.40
36652;DHT22;53334;51.976;20.144;2023-08-12T14:51:29;25.30;47.40
36652;DHT22;53334;51.976;20.144;2023-08-12T14:54:03;25.30;47.50
36652;DHT22;53334;51.976;20.144;2023-08-12T14:56:36;25.30;47.50
36652;DHT22;53334;51.976;20.144;2023-08-12T14:59:09;25.30;47.60
36652;DHT22;53334;51.976;20.144;2023-08-12T15:01:42;25.40;47.70
36652;DHT22;53334;51.976;20.144;2023-08-12T15:04:17;25.40;47.70
36652;DHT22;53334;51.976;20.144;2023-08-12T15:06:50;25.40;47.60
36652;DHT22;53334;51.976;20.144;2023-08-12T15:09:24;25.40;48.20
36652;DHT22;53334;51.976;20.144;2023-08-12T15:11:57;25.40;47.70
36652;DHT22;53334;51.976;20.144;2023-08-12T15:14:30;25.40;47.60
36652;DHT22;53334;51.976;20.144;2023-08-12T15:17:04;25.40;47.70
36652;DHT22;53334;51.976;20.144;2023-08-12T15:19:39;25.40;47.60
36652;DHT22;53334;51.976;20.144;2023-08-12T15:22:12;25.40;48.20
36652;DHT22;53334;51.976;20.144;2023-08-12T15:24:46;25.40;47.70
36652;DHT22;53334;51.976;20.144;2023-08-12T15:27:19;25.40;47.40
36652;DHT22;53334;51.976;20.144;2023-08-12T15:29:53;25.40;47.30
36652;DHT22;53334;51.976;20.144;2023-08-12T15:32:26;25.40;47.40
36652;DHT22;53334;51.976;20.144;2023-08-12T15:35:01;25.40;47.40
36652;DHT22;53334;51.976;20.144;2023-08-12T15:37:35;25.40;47.30
36652;DHT22;53334;51.976;20.144;2023-08-12T15:40:09;25.40;47.30
36652;DHT22;53334;51.976;20.144;2023-08-12T15:42:42;25.40;47.30
36652;DHT22;53334;51.976;20.144;2023-08-12T15:45:18;25.40;47.20
36652;DHT22;53334;51.976;20.144;2023-08-12T15:47:51;25.40;47.10
36652;DHT22;53334;51.976;20.144;2023-08-12T15:50:27;25.40;47.10
36652;DHT22;53334;51.976;20.144;2023-08-12T15:53:01;25.40;47.00
36652;DHT22;53334;51.976;20.144;2023-08-12T15:55:34;25.40;47.10
36652;DHT22;53334;51.976;20.144;2023-08-12T15:58:07;25.40;47.00